Time;durP1;ratioP1;P1;durP2;ratioP2;P2;SDS_P1;SDS_P2;PMS_P1;PMS_P2;Temp;Humidity;BMP_temperature;BMP_pressure;BME280_temperature;BME280_humidity;BME280_pressure;Samples;Min_cycle;Max_cycle;Signal;HPM_P1;HPM_P2
2023/03/10 00:00:15;;;;;;;6.55;4.78;;;;;;;1.85;100.00;98856.38;5072181;28;20049;-74
2023/03/10 00:02:49;;;;;;;5.13;4.63;;;;;;;1.85;100.00;98853.75;5071087;28;20045;-74
2023/03/10 00:05:17;;;;;;;5.75;4.72;;;;;;;1.86;100.00;98847.38;5072601;28;20049;-75
2023/03/10 00:07:45;;;;;;;5.88;4.72;;;;;;;1.87;100.00;98848.81;5071048;28;20490;-74
2023/03/10 00:10:14;;;;;;;6.10;4.63;;;;;;;1.86;100.00;98844.00;5071798;28;20049;-75
2023/03/10 00:12:41;;;;;;;6.25;4.82;;;;;;;1.88;100.00;98852.19;5072423;28;20167;-74
2023/03/10 00:15:09;;;;;;;4.78;3.88;;;;;;;1.89;100.00;98849.13;5072019;28;20057;-74
2023/03/10 00:17:36;;;;;;;5.47;4.70;;;;;;;1.91;100.00;98846.09;5072000;28;20572;-74
2023/03/10 00:20:06;;;;;;;6.68;4.68;;;;;;;1.91;100.00;98848.72;5072143;28;20053;-74
2023/03/10 00:22:38;;;;;;;4.97;4.47;;;;;;;1.90;100.00;98847.97;5072838;28;20553;-74
2023/03/10 00:25:05;;;;;;;5.20;4.70;;;;;;;1.93;100.00;98854.28;5071954;28;20045;-74
2023/03/10 00:27:32;;;;;;;4.78;4.03;;;;;;;1.95;100.00;98855.31;5072281;28;20037;-74
2023/03/10 00:29:59;;;;;;;4.65;4.20;;;;;;;1.94;100.00;98853.84;5072170;28;20076;-74
2023/03/10 00:32:26;;;;;;;5.22;4.30;;;;;;;1.96;100.00;98854.16;5071739;28;20112;-74
2023/03/10 00:34:52;;;;;;;5.13;4.22;;;;;;;1.96;100.00;98841.03;5071941;28;20064;-74
2023/03/10 00:37:19;;;;;;;4.70;4.18;;;;;;;1.95;100.00;98838.84;5072204;28;20041;-74
2023/03/10 00:39:51;;;;;;;4.85;4.03;;;;;;;1.95;100.00;98847.44;5070347;28;20498;-75
2023/03/10 00:42:18;;;;;;;4.57;4.15;;;;;;;1.95;100.00;98857.94;5072086;28;20099;-74
2023/03/10 00:44:45;;;;;;;4.65;4.15;;;;;;;1.99;100.00;98845.44;5071779;28;20139;-75
2023/03/10 00:47:12;;;;;;;5.68;4.72;;;;;;;1.98;100.00;98843.22;5070035;28;20053;-74
2023/03/10 00:49:38;;;;;;;4.57;4.18;;;;;;;1.95;100.00;98846.72;5070756;28;20211;-74
2023/03/10 00:52:05;;;;;;;4.53;4.13;;;;;;;1.97;100.00;98845.13;5075158;28;20041;-74
2023/03/10 00:54:32;;;;;;;4.53;4.13;;;;;;;1.99;100.00;98842.06;5075443;28;20438;-74
2023/03/10 00:56:59;;;;;;;4.15;3.63;;;;;;;1.99;100.00;98849.94;5075349;28;20040;-74
2023/03/10 00:59:25;;;;;;;4.88;4.30;;;;;;;1.97;100.00;98841.75;5074858;28;20049;-74
2023/03/10 01:01:53;;;;;;;4.95;4.28;;;;;;;1.96;100.00;98848.91;5073996;28;20045;-74
2023/03/10 01:04:20;;;;;;;4.32;3.92;;;;;;;1.95;100.00;98850.06;5075124;28;20477;-74
2023/03/10 01:06:46;;;;;;;4.60;4.05;;;;;;;1.94;100.00;98843.34;5075292;28;20049;-75
2023/03/10 01:09:14;;;;;;;4.50;4.00;;;;;;;1.94;100.00;98834.75;5075087;28;20056;-74
2023/03/10 01:11:40;;;;;;;3.90;3.55;;;;;;;1.92;100.00;98826.56;5073973;28;20053;-75
2023/03/10 01:14:10;;;;;;;4.70;4.30;;;;;;;1.92;100.00;98837.06;5073085;28;20045;-74
2023/03/10 01:16:36;;;;;;;4.60;4.13;;;;;;;1.94;100.00;98842.63;5073999;28;20426;-74
2023/03/10 01:19:03;;;;;;;4.57;3.97;;;;;;;1.96;100.00;98835.78;5073692;28;20120;-74
2023/03/10 01:21:33;;;;;;;4.25;3.85;;;;;;;1.95;100.00;98828.34;5073156;28;20062;-75
2023/03/10 01:24:01;;;;;;;3.78;3.47;;;;;;;1.94;100.00;98832.13;5073509;28;20041;-75
2023/03/10 01:26:28;;;;;;;4.60;4.07;;;;;;;1.96;100.00;98837.69;5073556;28;20577;-75
2023/03/10 01:28:55;;;;;;;4.55;4.13;;;;;;;1.97;100.00;98831.28;5074193;28;20502;-74
2023/03/10 01:31:22;;;;;;;4.93;4.05;;;;;;;1.94;100.00;98819.00;5074814;28;20445;-75
2023/03/10 01:33:48;;;;;;;4.10;3.72;;;;;;;1.93;100.00;98820.16;5073031;28;20053;-74
2023/03/10 01:36:18;;;;;;;4.43;3.95;;;;;;;1.94;100.00;98821.63;5073266;28;20477;-76
2023/03/10 01:38:46;;;;;;;4.10;3.80;;;;;;;1.94;100.00;98819.72;5075066;28;20053;-75
2023/03/10 01:41:13;;;;;;;4.25;3.85;;;;;;;1.94;100.00;98819.00;5074103;28;20196;-74
2023/03/10 01:43:42;;;;;;;5.32;4.38;;;;;;;1.96;100.00;98814.06;5073104;28;20045;-75
2023/03/10 01:46:30;;;;;;;4.60;4.20;;;;;;;1.95;100.00;98807.34;5072757;28;20502;-75
2023/03/10 01:49:08;;;;;;;5.97;3.90;;;;;;;1.93;100.00;98807.78;5072807;28;20053;-75
2023/03/10 01:51:36;;;;;;;3.95;3.63;;;;;;;1.96;100.00;98800.94;5073277;28;20454;-75
2023/03/10 01:54:08;;;;;;;5.07;3.92;;;;;;;1.96;100.00;98798.31;5073307;28;20041;-75
2023/03/10 01:56:35;;;;;;;4.28;3.88;;;;;;;1.97;100.00;98800.50;5073256;28;20119;-74
2023/03/10 01:59:02;;;;;;;4.57;4.13;;;;;;;1.98;100.00;98796.00;5073652;28;20049;-74
2023/03/10 02:01:29;;;;;;;4.10;3.70;;;;;;;1.99;100.00;98789.59;5072292;28;20049;-74
2023/03/10 02:04:06;;;;;;;4.68;3.90;;;;;;;1.99;100.00;98789.59;5072425;28;20045;-74
2023/03/10 02:06:34;;;;;;;3.88;3.58;;;;;;;1.97;100.00;98786.66;5072927;28;20048;-74
2023/03/10 02:09:03;;;;;;;4.25;3.85;;;;;;;2.00;100.00;98788.41;5074132;28;20045;-74
2023/03/10 02:11:30;;;;;;;4.10;3.70;;;;;;;2.00;100.00;98788.41;5072378;28;20045;-74
2023/03/10 02:14:01;;;;;;;4.50;4.13;;;;;;;2.01;100.00;98784.63;5072155;28;20044;-74
2023/03/10 02:16:29;;;;;;;4.10;3.78;;;;;;;2.02;100.00;98786.09;5074596;28;20032;-74
2023/03/10 02:18:56;;;;;;;4.15;3.80;;;;;;;2.03;100.00;98782.28;5072558;28;20048;-74
2023/03/10 02:21:39;;;;;;;4.70;4.30;;;;;;;2.00;100.00;98783.16;5073782;28;20498;-74
2023/03/10 02:24:30;;;;;;;5.25;3.80;;;;;;;1.99;100.00;98777.19;5073688;28;20047;-74
2023/03/10 02:27:02;;;;;;;4.25;3.92;;;;;;;1.97;100.00;98774.25;5071894;28;20107;-74
2023/03/10 02:29:33;;;;;;;5.10;4.55;;;;;;;1.98;100.00;98769.75;5072299;28;20395;-74
2023/03/10 02:32:03;;;;;;;4.70;4.07;;;;;;;1.97;100.00;98770.91;5073973;28;20045;-74
2023/03/10 02:34:30;;;;;;;5.10;4.57;;;;;;;1.97;100.00;98763.03;5071823;28;20060;-74
2023/03/10 02:36:56;;;;;;;4.95;4.38;;;;;;;1.94;100.00;98762.00;5072231;28;20068;-74
2023/03/10 02:39:23;;;;;;;4.47;4.07;;;;;;;1.93;100.00;98763.16;5072405;28;20568;-74
2023/03/10 02:41:50;;;;;;;4.50;4.10;;;;;;;1.93;100.00;98755.28;5055009;28;20140;-75
2023/03/10 02:44:20;;;;;;;5.07;4.53;;;;;;;1.92;100.00;98747.84;5071978;28;20044;-74
2023/03/10 02:46:47;;;;;;;4.60;4.13;;;;;;;1.93;100.00;98746.69;5072171;28;20095;-74
2023/03/10 02:49:18;;;;;;;4.57;3.95;;;;;;;1.95;100.00;98745.09;5072637;28;20132;-74
2023/03/10 02:51:45;;;;;;;4.72;4.07;;;;;;;1.96;100.00;98740.56;5074213;28;20045;-74
2023/03/10 02:54:15;;;;;;;4.07;3.78;;;;;;;1.97;100.00;98739.41;5074020;28;20040;-74
2023/03/10 02:56:42;;;;;;;4.88;4.32;;;;;;;1.99;100.00;98743.06;5072021;28;20051;-75
2023/03/10 02:59:11;;;;;;;4.03;3.58;;;;;;;1.99;100.00;98739.72;5071654;28;20048;-74
2023/03/10 03:01:42;;;;;;;5.63;4.43;;;;;;;1.99;100.00;98742.34;5072517;28;20076;-74
2023/03/10 03:04:09;;;;;;;4.97;4.32;;;;;;;2.01;100.00;98740.00;5071652;28;20052;-74
2023/03/10 03:06:38;;;;;;;4.65;4.25;;;;;;;2.02;100.00;98741.47;5072011;28;20045;-74
2023/03/10 03:09:05;;;;;;;5.20;4.10;;;;;;;1.98;100.00;98748.75;5071731;28;20049;-74
2023/03/10 03:11:31;;;;;;;4.55;4.15;;;;;;;1.98;100.00;98744.25;5070987;28;20045;-75
2023/03/10 03:13:58;;;;;;;4.75;4.25;;;;;;;1.98;100.00;98735.63;5071212;28;20055;-75
2023/03/10 03:16:25;;;;;;;3.88;3.55;;;;;;;1.94;100.00;98733.13;5071517;28;20120;-75
2023/03/10 03:18:57;;;;;;;;;;;;;;;1.96;100.00;98736.06;5072094;28;20048;-75
2023/03/10 03:21:24;;;;;;;4.40;4.00;;;;;;;1.96;100.00;98730.81;5072973;28;20325;-75
2023/03/10 03:23:52;;;;;;;4.22;3.83;;;;;;;1.96;100.00;98735.31;5071378;28;20097;-75
2023/03/10 03:26:24;;;;;;;3.80;3.50;;;;;;;1.93;100.00;98728.31;5070637;28;20052;-75
2023/03/10 03:28:55;;;;;;;4.25;3.75;;;;;;;1.94;100.00;98732.41;5071426;28;20103;-75
2023/03/10 03:31:26;;;;;;;4.18;3.70;;;;;;;1.92;100.00;98717.09;5071473;28;20045;-75
2023/03/10 03:34:05;;;;;;;3.88;3.55;;;;;;;1.92;100.00;98718.97;5071176;28;20060;-75
2023/03/10 03:36:32;;;;;;;4.38;3.97;;;;;;;1.91;100.00;98720.88;5071064;28;20046;-75
2023/03/10 03:38:58;;;;;;;4.30;3.90;;;;;;;1.92;100.00;98717.09;5072543;28;20453;-75
2023/03/10 03:41:28;;;;;;;3.90;3.50;;;;;;;1.93;100.00;98726.41;5071190;28;20107;-74
2023/03/10 03:43:55;;;;;;;3.70;3.40;;;;;;;1.92;100.00;98718.97;5071211;28;20095;-75
2023/03/10 03:46:22;;;;;;;3.88;3.58;;;;;;;1.91;100.00;98725.38;5071191;28;20107;-74
2023/03/10 03:48:48;;;;;;;7.18;4.00;;;;;;;1.91;100.00;98744.47;5071334;28;20086;-74
2023/03/10 03:51:16;;;;;;;3.97;3.65;;;;;;;1.93;100.00;98736.91;5071028;28;20465;-74
2023/03/10 03:53:42;;;;;;;3.65;3.40;;;;;;;1.89;100.00;98744.19;5072145;28;20041;-75
2023/03/10 03:56:10;;;;;;;3.70;3.40;;;;;;;1.89;100.00;98741.56;5070809;28;20107;-74
2023/03/10 03:58:38;;;;;;;4.63;3.65;;;;;;;1.90;100.00;98742.28;5071703;28;20055;-74
2023/03/10 04:01:05;;;;;;;7.78;3.67;;;;;;;1.91;100.00;98736.59;5072271;28;20052;-74
2023/03/10 04:03:38;;;;;;;4.13;3.72;;;;;;;1.89;100.00;98727.69;5071518;28;20049;-74
2023/03/10 04:06:07;;;;;;;3.80;3.50;;;;;;;1.90;100.00;98722.03;5070574;28;20049;-75
2023/03/10 04:08:34;;;;;;;4.05;3.28;;;;;;;1.86;100.00;98726.66;5071055;28;20081;-75
2023/03/10 04:11:01;;;;;;;6.32;3.83;;;;;;;1.84;100.00;98721.13;5070908;28;20072;-74
2023/03/10 04:13:29;;;;;;;3.40;3.13;;;;;;;1.84;100.00;98723.00;5070878;28;20045;-75
2023/03/10 04:15:58;;;;;;;4.00;3.60;;;;;;;1.84;100.00;98728.25;5070755;28;20512;-74
2023/03/10 04:18:29;;;;;;;3.47;3.20;;;;;;;1.84;100.00;98730.88;5070539;28;20056;-75
2023/03/10 04:20:56;;;;;;;3.90;3.60;;;;;;;1.83;100.00;98732.03;5070493;28;20055;-75
2023/03/10 04:23:23;;;;;;;3.53;3.22;;;;;;;1.82;100.00;98728.69;5071814;28;20033;-75
2023/03/10 04:25:50;;;;;;;3.75;3.45;;;;;;;1.82;100.00;98733.19;5069766;28;20083;-75
2023/03/10 04:28:17;;;;;;;3.70;3.40;;;;;;;1.82;100.00;98735.81;5070627;28;20053;-75
2023/03/10 04:30:47;;;;;;;3.90;3.60;;;;;;;1.83;100.00;98739.91;5072164;28;20041;-74
2023/03/10 04:33:16;;;;;;;3.80;3.45;;;;;;;1.83;100.00;98742.53;5070472;28;20045;-74
2023/03/10 04:35:47;;;;;;;4.53;3.40;;;;;;;1.82;100.00;98743.69;5070292;28;20057;-74
2023/03/10 04:38:16;;;;;;;3.33;3.08;;;;;;;1.81;100.00;98740.34;5069901;28;20079;-74
2023/03/10 04:40:44;;;;;;;3.58;3.28;;;;;;;1.81;100.00;98737.72;5070523;28;20049;-74
2023/03/10 04:43:11;;;;;;;3.30;3.10;;;;;;;1.81;100.00;98752.72;5069952;28;20057;-74
2023/03/10 04:45:38;;;;;;;4.05;3.75;;;;;;;1.82;100.00;98741.78;5070409;28;20041;-75
2023/03/10 04:48:05;;;;;;;3.83;3.50;;;;;;;1.81;100.00;98724.59;5070298;28;20049;-74
2023/03/10 04:50:31;;;;;;;3.42;3.17;;;;;;;1.80;100.00;98736.25;5069953;28;20494;-74
2023/03/10 04:52:58;;;;;;;3.35;3.08;;;;;;;1.77;100.00;98725.88;5069826;28;20049;-74
2023/03/10 04:55:28;;;;;;;3.88;3.47;;;;;;;1.75;100.00;98725.56;5069982;28;20830;-74
2023/03/10 04:57:56;;;;;;;4.57;3.50;;;;;;;1.76;100.00;98727.03;5071246;28;20061;-75
2023/03/10 05:00:23;;;;;;;5.50;3.60;;;;;;;1.74;100.00;98714.34;5069673;28;20077;-74
2023/03/10 05:02:51;;;;;;;3.60;3.30;;;;;;;1.76;100.00;98711.28;5069923;28;20095;-74
2023/03/10 05:05:18;;;;;;;3.95;3.50;;;;;;;1.72;100.00;98708.78;5069769;28;20049;-74
2023/03/10 05:07:46;;;;;;;6.55;3.25;;;;;;;1.71;100.00;98706.59;5069708;28;20128;-75
2023/03/10 05:10:12;;;;;;;3.55;3.20;;;;;;;1.68;100.00;98711.53;5070970;28;20043;-74
2023/03/10 05:12:41;;;;;;;3.65;3.35;;;;;;;1.67;100.00;98717.94;5070060;28;20045;-74
2023/03/10 05:15:09;;;;;;;5.20;3.83;;;;;;;1.68;100.00;98722.03;5069956;28;20526;-74
2023/03/10 05:17:36;;;;;;;3.80;3.47;;;;;;;1.68;100.00;98737.03;5069996;28;20080;-75
2023/03/10 05:20:06;;;;;;;3.53;3.03;;;;;;;1.68;100.00;98737.75;5069695;28;20492;-74
2023/03/10 05:22:32;;;;;;;6.68;3.33;;;;;;;1.65;100.00;98728.13;5070331;28;20049;-75
2023/03/10 05:24:59;;;;;;;3.78;3.47;;;;;;;1.66;100.00;98734.09;5069671;28;20053;-75
2023/03/10 05:27:25;;;;;;;3.42;3.13;;;;;;;1.65;100.00;98735.25;5071085;28;20045;-74
2023/03/10 05:29:52;;;;;;;3.38;3.15;;;;;;;1.65;100.00;98733.38;5070922;28;20037;-74
2023/03/10 05:32:22;;;;;;;2.92;2.72;;;;;;;1.62;100.00;98728.25;5069786;28;20049;-75
2023/03/10 05:34:49;;;;;;;3.20;2.90;;;;;;;1.63;100.00;98740.94;5070349;28;20490;-74
2023/03/10 05:37:16;;;;;;;3.45;3.15;;;;;;;1.64;100.00;98739.78;5071896;28;20167;-75
2023/03/10 05:39:43;;;;;;;3.92;3.58;;;;;;;1.62;100.00;98730.84;5073722;28;20067;-75
2023/03/10 05:42:15;;;;;;;3.50;3.20;;;;;;;1.61;100.00;98727.50;5072874;28;20136;-75
2023/03/10 05:44:42;;;;;;;3.38;3.08;;;;;;;1.61;100.00;98729.41;5073255;28;20052;-76
2023/03/10 05:47:09;;;;;;;3.22;2.92;;;;;;;1.59;100.00;98724.59;5073046;28;21134;-76
2023/03/10 05:49:35;;;;;;;3.75;3.13;;;;;;;1.60;100.00;98720.09;5073187;28;20052;-76
2023/03/10 05:52:06;;;;;;;3.45;3.15;;;;;;;1.59;100.00;98729.84;5073134;28;20053;-77
2023/03/10 05:54:32;;;;;;;3.95;3.10;;;;;;;1.57;100.00;98726.19;5072953;28;20049;-76
2023/03/10 05:56:59;;;;;;;3.35;2.95;;;;;;;1.57;100.00;98721.66;5074444;28;20569;-76
2023/03/10 05:59:27;;;;;;;3.28;3.03;;;;;;;1.57;100.00;98728.81;5072857;28;20055;-76
2023/03/10 06:01:57;;;;;;;3.72;3.40;;;;;;;1.59;100.00;98723.88;5072869;28;20041;-74
2023/03/10 06:04:23;;;;;;;3.72;2.83;;;;;;;1.60;100.00;98723.41;5073762;28;20119;-74
2023/03/10 06:06:50;;;;;;;5.72;2.85;;;;;;;1.60;100.00;98727.97;5072657;28;20179;-73
2023/03/10 06:09:16;;;;;;;2.72;2.53;;;;;;;1.61;100.00;98726.78;5074184;28;20645;-74
2023/03/10 06:11:42;;;;;;;3.20;2.95;;;;;;;1.61;100.00;98727.50;5074404;28;20116;-74
2023/03/10 06:14:09;;;;;;;4.13;2.88;;;;;;;1.59;100.00;98726.50;5072393;28;20131;-74
2023/03/10 06:16:35;;;;;;;2.85;2.65;;;;;;;1.57;100.00;98726.91;5074432;28;20111;-74
2023/03/10 06:19:02;;;;;;;3.10;2.85;;;;;;;1.57;100.00;98741.91;5073479;28;20045;-74
2023/03/10 06:21:29;;;;;;;3.10;2.80;;;;;;;1.58;100.00;98732.91;5074033;28;20072;-74
2023/03/10 06:23:55;;;;;;;4.50;3.00;;;;;;;1.58;100.00;98732.91;5074090;28;20421;-74
2023/03/10 06:26:23;;;;;;;3.08;2.88;;;;;;;1.59;100.00;98719.34;5073771;28;20049;-74
2023/03/10 06:28:49;;;;;;;2.67;2.47;;;;;;;1.60;100.00;98726.03;5073900;28;20048;-74
2023/03/10 06:31:23;;;;;;;3.65;3.22;;;;;;;1.59;100.00;98729.84;5073955;28;20068;-75
2023/03/10 06:33:50;;;;;;;2.95;2.65;;;;;;;1.60;100.00;98735.81;5072869;28;20060;-74
2023/03/10 06:36:18;;;;;;;3.08;2.78;;;;;;;1.61;100.00;98721.53;5073636;28;20076;-75
2023/03/10 06:38:45;;;;;;;3.75;2.80;;;;;;;1.62;100.00;98728.25;5073776;28;20464;-75
2023/03/10 06:41:11;;;;;;;3.47;3.20;;;;;;;1.61;100.00;98737.25;5071766;28;20465;-75
2023/03/10 06:43:39;;;;;;;3.38;2.70;;;;;;;1.60;100.00;98733.19;5074379;28;20528;-75
2023/03/10 06:46:07;;;;;;;4.55;3.45;;;;;;;1.61;100.00;98727.50;5074232;28;20046;-75
2023/03/10 06:48:35;;;;;;;3.22;2.80;;;;;;;1.63;100.00;98719.22;5073170;28;20128;-74
2023/03/10 06:51:05;;;;;;;2.70;2.50;;;;;;;1.63;100.00;98727.06;5073790;28;20087;-74
2023/03/10 06:53:32;;;;;;;3.17;2.88;;;;;;;1.62;100.00;98721.09;5073162;28;20120;-73
2023/03/10 06:56:01;;;;;;;6.20;3.15;;;;;;;1.63;100.00;98719.22;5073349;28;20045;-75
2023/03/10 06:58:29;;;;;;;3.05;2.63;;;;;;;1.62;100.00;98725.63;5073092;28;20095;-74
2023/03/10 07:00:56;;;;;;;3.28;2.83;;;;;;;1.61;100.00;98727.50;5072833;28;20047;-75
2023/03/10 07:03:25;;;;;;;5.40;2.67;;;;;;;1.62;100.00;98733.47;5071520;28;20045;-75
2023/03/10 07:05:52;;;;;;;3.65;2.72;;;;;;;1.64;100.00;98731.91;5072808;28;20049;-74
2023/03/10 07:08:18;;;;;;;4.07;2.80;;;;;;;1.64;100.00;98720.69;5055143;28;20502;-76
2023/03/10 07:10:45;;;;;;;3.35;2.70;;;;;;;1.63;100.00;98714.69;5072306;28;20561;-76
2023/03/10 07:13:14;;;;;;;2.38;2.22;;;;;;;1.64;100.00;98715.44;5073061;28;20457;-75
2023/03/10 07:15:41;;;;;;;2.78;2.47;;;;;;;1.64;100.00;98716.16;5073248;28;20079;-75
2023/03/10 07:18:07;;;;;;;2.97;2.55;;;;;;;1.64;100.00;98710.91;5072603;28;20144;-76
2023/03/10 07:20:34;;;;;;;2.63;2.20;;;;;;;1.64;100.00;98721.41;5073540;28;20489;-76
2023/03/10 07:23:01;;;;;;;4.07;2.65;;;;;;;1.65;100.00;98733.38;5071146;28;20496;-75
2023/03/10 07:25:27;;;;;;;2.88;2.58;;;;;;;1.66;100.00;98728.84;5071617;28;20077;-75
2023/03/10 07:27:54;;;;;;;2.90;2.42;;;;;;;1.66;100.00;98729.59;5073018;28;20041;-75
2023/03/10 07:30:20;;;;;;;4.47;2.58;;;;;;;1.65;100.00;98728.13;5071346;28;20052;-75
2023/03/10 07:32:51;;;;;;;2.60;2.25;;;;;;;1.66;100.00;98731.47;5072614;28;20107;-75
2023/03/10 07:35:18;;;;;;;2.85;2.65;;;;;;;1.64;100.00;98737.16;5072828;28;20057;-75
2023/03/10 07:37:45;;;;;;;2.58;2.38;;;;;;;1.66;100.00;98739.34;5073322;28;20075;-75
2023/03/10 07:40:11;;;;;;;2.92;2.53;;;;;;;1.71;100.00;98741.41;5072545;28;20041;-76
2023/03/10 07:42:38;;;;;;;2.70;2.38;;;;;;;1.76;100.00;98755.88;5073100;28;20053;-77
2023/03/10 07:45:05;;;;;;;2.47;2.20;;;;;;;1.74;100.00;98755.56;5073615;28;20472;-75
2023/03/10 07:47:31;;;;;;;3.20;2.63;;;;;;;1.75;100.00;98744.66;5072168;28;20544;-77
2023/03/10 07:49:58;;;;;;;3.08;2.78;;;;;;;1.78;100.00;98756.19;5072964;28;20083;-76
2023/03/10 07:52:24;;;;;;;3.42;2.83;;;;;;;1.81;100.00;98760.59;5073124;28;20045;-77
2023/03/10 07:54:51;;;;;;;3.35;3.05;;;;;;;1.82;100.00;98751.56;5072948;28;20076;-76
2023/03/10 07:57:17;;;;;;;4.90;2.67;;;;;;;1.82;100.00;98762.06;5072784;28;20045;-75
2023/03/10 07:59:44;;;;;;;3.28;2.60;;;;;;;1.81;100.00;98755.34;5071825;28;20049;-76
2023/03/10 08:02:12;;;;;;;2.72;2.47;;;;;;;1.81;100.00;98758.69;5072920;28;20053;-78
2023/03/10 08:04:40;;;;;;;2.47;2.28;;;;;;;1.85;100.00;98766.44;5073588;28;20049;-77
2023/03/10 08:07:07;;;;;;;3.10;2.75;;;;;;;1.88;100.00;98760.34;5072418;28;20052;-77
2023/03/10 08:09:34;;;;;;;3.08;2.72;;;;;;;1.87;100.00;98764.13;5073057;28;20049;-77
2023/03/10 08:12:01;;;;;;;2.20;2.10;;;;;;;1.87;100.00;98762.25;5073057;28;20045;-78
2023/03/10 08:14:30;;;;;;;2.60;2.40;;;;;;;1.87;100.00;98764.13;5071101;28;20785;-79
2023/03/10 08:16:56;;;;;;;2.40;2.25;;;;;;;1.87;100.00;98764.13;5073010;28;20045;-77
2023/03/10 08:19:24;;;;;;;2.55;2.35;;;;;;;1.87;100.00;98772.00;5073339;28;20517;-78
2023/03/10 08:21:54;;;;;;;2.15;1.95;;;;;;;1.89;100.00;98770.41;5073046;28;20151;-78
2023/03/10 08:24:21;;;;;;;3.17;2.60;;;;;;;1.91;100.00;98773.34;5072444;28;20107;-78
2023/03/10 08:26:48;;;;;;;2.92;2.17;;;;;;;1.95;100.00;98773.22;5072929;28;20045;-78
2023/03/10 08:29:14;;;;;;;2.33;2.22;;;;;;;1.96;100.00;98775.44;5070743;28;20049;-79
2023/03/10 08:31:41;;;;;;;2.50;2.30;;;;;;;1.99;100.00;98771.22;5071270;28;20144;-76
2023/03/10 08:34:08;;;;;;;2.47;2.22;;;;;;;1.99;100.00;98773.84;5072711;28;20446;-76
2023/03/10 08:36:34;;;;;;;2.58;2.38;;;;;;;2.01;100.00;98776.75;5071653;28;20071;-76
2023/03/10 08:39:04;;;;;;;2.78;2.30;;;;;;;2.02;100.00;98775.59;5072549;28;20029;-76
2023/03/10 08:41:50;;;;;;;1.88;1.77;;;;;;;2.03;100.00;98771.06;5072415;28;20044;-76
2023/03/10 08:44:18;;;;;;;1.88;1.77;;;;;;;2.05;100.00;98776.63;5071697;28;20482;-76
2023/03/10 08:46:46;;;;;;;2.50;2.33;;;;;;;2.07;100.00;98776.94;5071597;28;20476;-76
2023/03/10 08:49:14;;;;;;;4.40;2.38;;;;;;;2.10;100.00;98781.31;5072461;28;20402;-75
2023/03/10 08:51:42;;;;;;;2.40;2.20;;;;;;;2.11;100.00;98780.16;5071412;28;20051;-76
2023/03/10 08:54:14;;;;;;;2.80;2.53;;;;;;;2.15;100.00;98792.00;5073489;28;20486;-77
2023/03/10 08:56:41;;;;;;;2.58;2.38;;;;;;;2.16;100.00;98785.59;5072597;28;20045;-77
2023/03/10 08:59:07;;;;;;;2.20;2.00;;;;;;;2.20;100.00;98788.09;5072791;28;20160;-74
2023/03/10 09:01:35;;;;;;;2.97;2.22;;;;;;;2.19;100.00;98795.25;5073144;28;20402;-75
2023/03/10 09:04:04;;;;;;;2.50;2.30;;;;;;;2.17;100.00;98784.44;5073002;28;20135;-76
2023/03/10 09:06:31;;;;;;;2.20;2.10;;;;;;;2.20;100.00;98793.34;5070060;28;20419;-75
2023/03/10 09:08:58;;;;;;;2.10;2.00;;;;;;;2.21;100.00;98798.16;5072714;28;20045;-77
2023/03/10 09:11:28;;;;;;;2.30;2.17;;;;;;;2.25;100.00;98798.03;5073300;28;20045;-77
2023/03/10 09:13:55;;;;;;;2.13;1.92;;;;;;;2.22;100.00;98797.00;5074707;28;20045;-76
2023/03/10 09:16:22;;;;;;;2.00;1.90;;;;;;;2.18;100.00;98800.91;5075070;28;20036;-77
2023/03/10 09:18:48;;;;;;;1.98;1.88;;;;;;;2.16;100.00;98790.84;5057802;28;20060;-76
2023/03/10 09:21:17;;;;;;;2.13;1.98;;;;;;;2.16;100.00;98797.97;5074753;28;20048;-75
2023/03/10 09:23:46;;;;;;;2.20;1.98;;;;;;;2.15;100.00;98802.50;5075305;28;20079;-76
2023/03/10 09:26:14;;;;;;;3.35;1.98;;;;;;;2.18;100.00;98804.28;5074659;28;20501;-75
2023/03/10 09:28:41;;;;;;;2.20;2.00;;;;;;;2.21;100.00;98802.69;5074089;28;20037;-75
2023/03/10 09:31:13;;;;;;;2.45;2.28;;;;;;;2.20;100.00;98806.47;5066108;28;20075;-76
2023/03/10 09:33:41;;;;;;;2.28;2.10;;;;;;;2.17;100.00;98818.56;5074610;28;20041;-76
2023/03/10 09:36:08;;;;;;;5.40;2.05;;;;;;;2.16;100.00;98806.59;5073872;28;20056;-77
2023/03/10 09:38:35;;;;;;;2.63;1.88;;;;;;;2.15;100.00;98807.75;5074594;28;20068;-75
2023/03/10 09:41:30;;;;;;;2.10;1.98;;;;;;;2.16;100.00;98811.84;5075332;28;20052;-73
2023/03/10 09:44:30;;;;;;;2.00;1.90;;;;;;;2.18;100.00;98814.03;5074765;28;20134;-75
2023/03/10 09:47:09;;;;;;;1.70;1.60;;;;;;;2.19;100.00;98808.38;5074950;28;20123;-76
2023/03/10 09:49:37;;;;;;;2.15;1.95;;;;;;;2.20;100.00;98807.22;5075258;28;20049;-75
2023/03/10 09:52:27;;;;;;;1.73;1.60;;;;;;;2.21;100.00;98818.44;5073669;28;20107;-75
2023/03/10 09:55:02;;;;;;;1.75;1.52;;;;;;;2.24;100.00;98809.72;5074519;28;20462;-76
2023/03/10 09:57:30;;;;;;;2.00;1.77;;;;;;;2.22;100.00;98806.78;5061144;28;20116;-76
2023/03/10 10:00:01;;;;;;;1.73;1.50;;;;;;;2.22;100.00;98815.38;5074867;28;20045;-76
2023/03/10 10:02:38;;;;;;;1.75;1.65;;;;;;;2.23;100.00;98821.38;5072015;28;20517;-76
2023/03/10 10:05:23;;;;;;;1.52;1.42;;;;;;;2.20;100.00;98833.47;5074953;28;20045;-75
2023/03/10 10:07:59;;;;;;;1.60;1.50;;;;;;;2.19;100.00;98836.50;5074068;28;20048;-76
2023/03/10 10:10:28;;;;;;;1.70;1.60;;;;;;;2.19;100.00;98839.88;5073888;28;20096;-73
2023/03/10 10:13:10;;;;;;;1.63;1.52;;;;;;;2.21;100.00;98834.91;5073439;28;20049;-74
2023/03/10 10:15:38;;;;;;;;;;;;;;;2.21;100.00;98834.91;5075353;28;20103;-74
2023/03/10 10:18:18;;;;;;;1.48;1.30;;;;;;;2.21;100.00;98844.69;5074731;28;19925;-74
2023/03/10 10:20:52;;;;;;;1.20;1.17;;;;;;;2.23;100.00;98847.63;5073284;28;20497;-75
2023/03/10 10:23:28;;;;;;;1.73;1.30;;;;;;;2.21;100.00;98842.06;5071697;28;20092;-74
2023/03/10 10:26:04;;;;;;;1.52;1.42;;;;;;;2.23;100.00;98848.34;5074135;28;20052;-74
2023/03/10 10:28:43;;;;;;;1.42;1.33;;;;;;;2.25;100.00;98851.28;5072439;28;20060;-74
2023/03/10 10:31:19;;;;;;;1.55;1.45;;;;;;;2.25;100.00;98855.81;5073091;28;20048;-74
2023/03/10 10:34:05;;;;;;;1.90;1.52;;;;;;;2.23;100.00;98845.00;5073819;28;20080;-74
2023/03/10 10:36:47;;;;;;;1.77;1.60;;;;;;;2.26;100.00;98858.00;5072952;28;20049;-76
2023/03/10 10:39:30;;;;;;;1.52;1.40;;;;;;;2.21;100.00;98861.19;5071488;28;20126;-76
2023/03/10 10:42:23;;;;;;;2.00;1.88;;;;;;;2.20;100.00;98853.72;5072903;28;20441;-76
2023/03/10 10:45:05;;;;;;;1.63;1.52;;;;;;;2.25;100.00;98853.19;5090952;28;20054;-76
2023/03/10 10:47:34;;;;;;;;;;;;;;;2.29;100.00;98859.78;5072077;28;20052;-74
2023/03/10 10:50:23;;;;;;;1.80;1.70;;;;;;;2.33;100.00;98857.75;5073108;28;19972;-75
2023/03/10 10:53:12;;;;;;;1.83;1.73;;;;;;;2.35;100.00;98862.59;5072996;28;20048;-76
2023/03/10 10:55:39;;;;;;;2.00;1.80;;;;;;;2.40;100.00;98856.06;5071156;28;20132;-75
2023/03/10 10:58:25;;;;;;;2.22;2.03;;;;;;;2.43;100.00;98853.28;5070699;28;20045;-75
2023/03/10 11:00:59;;;;;;;2.53;1.95;;;;;;;2.46;100.00;98865.56;5072151;28;20045;-75
2023/03/10 11:03:37;;;;;;;2.22;2.08;;;;;;;2.45;100.00;98863.34;5072105;28;20494;-75
2023/03/10 11:06:26;;;;;;;2.88;2.67;;;;;;;2.48;100.00;98875.63;5070865;28;20049;-75
2023/03/10 11:09:02;;;;;;;2.08;1.98;;;;;;;2.46;100.00;98875.31;5069956;28;20056;-75
2023/03/10 11:11:56;;;;;;;2.00;1.90;;;;;;;2.45;100.00;98877.22;5071245;28;20103;-74
2023/03/10 11:14:54;;;;;;;2.00;1.90;;;;;;;2.47;100.00;98876.78;5072089;28;20123;-75
2023/03/10 11:17:26;;;;;;;2.28;2.00;;;;;;;2.48;100.00;98878.25;5070967;28;20172;-75
2023/03/10 11:19:55;;;;;;;1.98;1.88;;;;;;;2.48;100.00;98865.13;5073252;28;20045;-74
2023/03/10 11:22:36;;;;;;;2.28;2.10;;;;;;;2.46;100.00;98865.56;5072325;28;20045;-74
2023/03/10 11:25:25;;;;;;;2.40;2.20;;;;;;;2.45;100.00;98873.88;5071127;28;20041;-76
2023/03/10 11:28:15;;;;;;;2.10;1.92;;;;;;;2.43;100.00;98871.66;5071394;28;20545;-76
2023/03/10 11:31:05;;;;;;;1.98;1.88;;;;;;;2.43;100.00;98876.19;5072532;28;20124;-78
2023/03/10 11:33:47;;;;;;;2.03;1.92;;;;;;;2.42;100.00;98866.84;5072677;28;20041;-79
2023/03/10 11:36:23;;;;;;;;;;;;;;;2.45;100.00;98873.88;5073848;28;20124;-78
2023/03/10 11:38:57;;;;;;;1.95;1.83;;;;;;;2.40;100.00;98875.16;5073414;28;19968;-78
2023/03/10 11:41:28;;;;;;;1.77;1.67;;;;;;;2.39;100.00;98867.72;5105740;27;20107;-79
2023/03/10 11:43:59;;;;;;;1.70;1.60;;;;;;;2.37;100.00;98859.53;5072167;28;20057;-78
2023/03/10 11:46:53;;;;;;;2.05;1.95;;;;;;;2.35;100.00;98846.84;5072963;28;20278;-78